Time;durP1;ratioP1;P1;durP2;ratioP2;P2;SDS_P1;SDS_P2;PMS_P1;PMS_P2;Temp;Humidity;BMP_temperature;BMP_pressure;BME280_temperature;BME280_humidity;BME280_pressure;Samples;Min_cycle;Max_cycle;Signal;HPM_P1;HPM_P2
2023/03/01 00:01:26;;;;;;;55.20;34.53;;;-0.90;99.90;;;-2.42;100.00;98063.41;5010874;28;20409;-75
2023/03/01 00:03:53;;;;;;;61.45;38.25;;;-0.90;99.90;;;-2.41;100.00;98063.25;5011015;28;20495;-75
2023/03/01 00:06:20;;;;;;;55.13;34.63;;;-0.90;99.90;;;-2.44;100.00;98068.75;4993248;28;20851;-74
2023/03/01 00:08:48;;;;;;;62.88;38.20;;;-0.90;99.90;;;-2.44;100.00;98071.31;4993246;28;20411;-75
2023/03/01 00:11:18;;;;;;;55.88;35.17;;;-0.90;99.90;;;-2.47;100.00;98066.44;5010700;28;20905;-75
2023/03/01 00:13:45;;;;;;;67.07;37.28;;;-1.00;99.90;;;-2.44;100.00;98066.16;5010740;28;20511;-75
2023/03/01 00:16:14;;;;;;;61.25;37.13;;;-0.90;99.90;;;-2.46;100.00;98068.06;5010785;28;20886;-75
2023/03/01 00:18:40;;;;;;;59.33;36.58;;;-1.00;99.90;;;-2.45;100.00;98064.50;5010711;28;20424;-75
2023/03/01 00:21:06;;;;;;;54.30;34.92;;;-1.00;99.90;;;-2.55;100.00;98070.75;5010637;28;20802;-75
2023/03/01 00:23:34;;;;;;;55.88;35.38;;;-1.00;99.90;;;-2.60;100.00;98067.81;5010698;28;20423;-75
2023/03/01 00:26:06;;;;;;;53.10;33.13;;;-1.10;99.90;;;-2.64;100.00;98079.44;5010630;28;20473;-75
2023/03/01 00:28:32;;;;;;;58.15;35.50;;;-1.10;99.90;;;-2.57;100.00;98077.88;5025331;23;20470;-72
2023/03/01 00:31:04;;;;;;;59.53;35.65;;;-1.10;99.90;;;-2.58;100.00;98078.84;5029603;28;20415;-73
2023/03/01 00:33:29;;;;;;;49.40;32.17;;;-1.10;99.90;;;-2.68;100.00;98078.09;5028430;28;20444;-73
2023/03/01 00:35:58;;;;;;;62.08;36.80;;;-1.20;99.90;;;-2.64;100.00;98069.09;5030308;28;20758;-73
2023/03/01 00:38:24;;;;;;;54.28;33.95;;;-1.20;99.90;;;-2.70;100.00;98080.84;5029686;28;20427;-73
2023/03/01 00:40:50;;;;;;;53.05;33.75;;;-1.20;99.90;;;-2.74;100.00;98069.16;5030169;28;20407;-73
2023/03/01 00:43:17;;;;;;;59.67;35.63;;;-1.30;99.90;;;-2.69;100.00;98073.88;5029926;28;20407;-73
2023/03/01 00:45:43;;;;;;;54.03;33.83;;;-1.30;99.90;;;-2.77;100.00;98074.63;5030254;28;20403;-73
2023/03/01 00:48:09;;;;;;;50.35;32.63;;;-1.30;99.90;;;-2.83;100.00;98068.28;5030246;28;20402;-72
2023/03/01 00:50:35;;;;;;;48.47;31.40;;;-1.30;99.90;;;-2.85;100.00;98059.03;5030127;28;20811;-73
2023/03/01 00:53:01;;;;;;;59.05;36.00;;;-1.40;99.90;;;-2.83;100.00;98057.94;5029900;28;20411;-73
2023/03/01 00:55:27;;;;;;;49.90;31.52;;;-1.40;99.90;;;-2.89;100.00;98066.31;5030150;28;20410;-73
2023/03/01 00:57:52;;;;;;;56.38;34.53;;;-1.40;99.90;;;-2.91;100.00;98059.63;5029986;28;20447;-73
2023/03/01 01:00:21;;;;;;;54.25;34.65;;;-1.40;99.90;;;-2.94;100.00;98057.38;5030031;28;20399;-73
2023/03/01 01:02:47;;;;;;;57.57;35.67;;;-1.40;99.90;;;-2.92;100.00;98063.19;5029794;28;20502;-73
2023/03/01 01:05:13;;;;;;;52.60;33.90;;;-1.40;99.90;;;-2.95;100.00;98059.13;5030020;28;20403;-73
2023/03/01 01:07:39;;;;;;;58.47;36.53;;;-1.40;99.90;;;-2.98;100.00;98059.44;5029981;28;20403;-73
2023/03/01 01:10:07;;;;;;;53.97;33.38;;;-1.40;99.90;;;-2.98;100.00;98058.59;5029819;28;20407;-73
2023/03/01 01:12:33;;;;;;;61.88;35.10;;;-1.50;99.90;;;-3.01;100.00;98054.56;5029640;28;20474;-73
2023/03/01 01:14:59;;;;;;;56.72;34.65;;;-1.50;99.90;;;-3.03;100.00;98058.25;5028626;28;20431;-72
2023/03/01 01:17:26;;;;;;;56.72;34.67;;;-1.50;99.90;;;-3.01;100.00;98057.16;5029882;28;20893;-73
2023/03/01 01:19:52;;;;;;;58.10;35.03;;;-1.50;99.90;;;-3.05;100.00;98052.41;5029795;28;20828;-73
2023/03/01 01:22:18;;;;;;;57.85;34.38;;;-1.50;99.90;;;-3.07;100.00;98055.13;5029602;28;20422;-73
2023/03/01 01:24:44;;;;;;;54.50;33.28;;;-1.60;99.90;;;-3.08;100.00;98060.47;5029836;28;20750;-73
2023/03/01 01:27:10;;;;;;;55.90;35.23;;;-1.60;99.90;;;-3.08;100.00;98053.50;5029850;28;20453;-72
2023/03/01 01:29:36;;;;;;;60.90;36.55;;;-1.60;99.90;;;-3.09;100.00;98057.06;5029558;28;20422;-73
2023/03/01 01:32:02;;;;;;;62.00;38.35;;;-1.60;99.90;;;-3.06;100.00;98043.81;5029598;28;20431;-73
2023/03/01 01:34:29;;;;;;;60.87;36.70;;;-1.50;99.90;;;-3.07;100.00;98039.59;5029784;28;20948;-73
2023/03/01 01:36:55;;;;;;;57.08;34.47;;;-1.60;99.90;;;-3.12;100.00;98040.06;5029648;28;20419;-73
2023/03/01 01:39:22;;;;;;;61.95;37.05;;;-1.60;99.90;;;-3.09;100.00;98043.31;5029559;28;20395;-73
2023/03/01 01:41:48;;;;;;;63.83;37.22;;;-1.60;99.90;;;-3.09;100.00;98036.38;5029521;28;20486;-72
2023/03/01 01:44:18;;;;;;;59.90;36.47;;;-1.60;99.90;;;-3.12;100.00;98039.25;5029646;28;20433;-73
2023/03/01 01:46:48;;;;;;;65.45;37.22;;;-1.60;99.90;;;-3.13;100.00;98029.84;5029699;28;20427;-73
2023/03/01 01:49:28;;;;;;;65.90;37.45;;;-1.60;99.90;;;-3.13;100.00;98030.66;5029520;28;20390;-73
2023/03/01 01:52:03;;;;;;;60.42;35.75;;;-1.60;99.90;;;-3.17;100.00;98031.13;5031529;28;20734;-73
2023/03/01 01:54:41;;;;;;;58.15;34.63;;;-1.70;99.90;;;-3.21;100.00;98025.41;5031867;28;20788;-72
2023/03/01 01:57:13;;;;;;;61.63;37.30;;;-1.70;99.90;;;-3.22;100.00;98031.53;5033108;28;20843;-72
2023/03/01 01:59:40;;;;;;;66.43;38.20;;;-1.70;99.90;;;-3.15;100.00;98027.41;5033081;28;20402;-73
2023/03/01 02:02:06;;;;;;;66.68;40.08;;;-1.60;99.90;;;-3.15;100.00;98022.22;5032799;28;20403;-72
2023/03/01 02:04:32;;;;;;;63.30;37.30;;;-1.60;99.90;;;-3.16;100.00;98018.00;5032933;28;20472;-73
2023/03/01 02:07:07;;;;;;;64.45;38.22;;;-1.60;99.90;;;-3.04;100.00;98022.94;5033016;28;20406;-73
2023/03/01 02:09:34;;;;;;;64.82;38.47;;;-1.50;99.90;;;-2.94;100.00;98021.91;5032868;28;20457;-73
2023/03/01 02:12:01;;;;;;;61.35;36.92;;;-1.50;99.90;;;-2.85;100.00;98012.41;5032631;28;20415;-73
2023/03/01 02:14:26;;;;;;;70.35;41.42;;;-1.40;99.90;;;-2.72;100.00;98012.03;5032911;28;20427;-73
2023/03/01 02:16:52;;;;;;;59.95;36.35;;;-1.30;99.90;;;-2.66;100.00;98006.22;5032686;28;20407;-73
2023/03/01 02:19:32;;;;;;;63.63;38.58;;;-1.20;99.90;;;-2.57;100.00;98000.13;5032585;28;20406;-73
2023/03/01 02:22:09;;;;;;;59.42;37.45;;;-1.10;99.90;;;-2.47;100.00;97998.22;5032374;28;20517;-73
2023/03/01 02:24:47;;;;;;;60.90;37.90;;;-1.10;99.90;;;-2.39;100.00;97993.91;5032604;28;20422;-73
2023/03/01 02:27:17;;;;;;;57.17;35.95;;;-1.00;99.90;;;-2.33;100.00;98000.25;5032575;28;20427;-72
2023/03/01 02:29:44;;;;;;;57.00;36.13;;;-0.90;99.90;;;-2.29;100.00;97988.63;5032332;28;20469;-73
2023/03/01 02:32:12;;;;;;;56.80;35.53;;;-0.90;99.90;;;-2.25;100.00;97986.50;5032224;28;20399;-73
2023/03/01 02:34:39;;;;;;;56.43;37.00;;;-0.80;99.90;;;-2.23;100.00;97982.81;5032395;28;20480;-73
2023/03/01 02:37:12;;;;;;;57.60;36.85;;;-0.80;99.90;;;-2.18;100.00;97980.53;5032266;28;20853;-73
2023/03/01 02:39:42;;;;;;;54.88;36.42;;;-0.70;99.90;;;-2.12;100.00;97974.75;5032301;28;20889;-73
2023/03/01 02:42:12;;;;;;;51.25;32.83;;;-0.70;99.90;;;-2.03;100.00;97970.41;5032040;28;20422;-72
2023/03/01 02:44:38;;;;;;;61.17;37.22;;;-0.60;99.90;;;-2.00;100.00;97973.50;5032233;28;20395;-73
2023/03/01 02:47:06;;;;;;;58.92;37.17;;;-0.60;99.90;;;-1.93;100.00;97968.47;5032190;28;20395;-73
2023/03/01 02:49:35;;;;;;;57.45;36.30;;;-0.50;99.90;;;-1.89;100.00;97969.81;5032202;28;20403;-73
2023/03/01 02:52:33;;;;;;;55.80;35.22;;;-0.50;99.90;;;-1.83;100.00;97973.53;5031838;28;20426;-73
2023/03/01 02:55:05;;;;;;;52.42;34.10;;;-0.40;99.90;;;-1.80;100.00;97957.63;5032109;28;20817;-73
2023/03/01 02:57:35;;;;;;;54.17;33.90;;;-0.40;99.90;;;-1.76;100.00;97967.56;5032022;28;20426;-73
2023/03/01 03:00:07;;;;;;;50.90;33.45;;;-0.30;99.90;;;-1.71;100.00;97956.69;5031917;28;20447;-73
2023/03/01 03:02:35;;;;;;;59.72;36.60;;;-0.30;99.90;;;-1.68;100.00;97956.38;5031286;28;20405;-73
2023/03/01 03:05:05;;;;;;;53.35;34.20;;;-0.30;99.90;;;-1.64;100.00;97958.47;5031873;28;20482;-73
2023/03/01 03:07:33;;;;;;;54.22;34.90;;;-0.30;99.90;;;-1.61;100.00;97952.97;5031824;28;20407;-73
2023/03/01 03:09:59;;;;;;;55.88;35.85;;;-0.20;99.90;;;-1.58;100.00;97951.84;5031880;28;20407;-72
2023/03/01 03:12:25;;;;;;;56.77;35.87;;;-0.20;99.90;;;-1.55;100.00;97956.72;5031522;28;20460;-73
2023/03/01 03:14:50;;;;;;;58.22;36.97;;;-0.20;99.90;;;-1.55;100.00;97951.53;5031688;28;20456;-73
2023/03/01 03:17:16;;;;;;;55.05;35.92;;;-0.20;99.90;;;-1.53;100.00;97946.19;5031566;28;20461;-73
2023/03/01 03:19:45;;;;;;;57.75;36.58;;;-0.10;99.90;;;-1.49;100.00;97945.69;5031549;28;20537;-73
2023/03/01 03:22:11;;;;;;;55.97;35.35;;;-0.10;99.90;;;-1.46;100.00;97945.38;5031235;28;20407;-73
2023/03/01 03:24:37;;;;;;;60.92;36.50;;;-0.10;99.90;;;-1.46;100.00;97934.97;5031465;28;20875;-73
2023/03/01 03:27:03;;;;;;;54.35;34.55;;;-0.10;99.90;;;-1.45;100.00;97936.63;5031497;28;20399;-73
2023/03/01 03:29:30;;;;;;;52.70;34.00;;;-0.10;99.90;;;-1.44;100.00;97940.03;5031259;28;20785;-73
2023/03/01 03:31:56;;;;;;;57.90;36.53;;;0.00;99.90;;;-1.42;100.00;97932.84;5031106;28;20477;-73
2023/03/01 03:34:22;;;;;;;55.20;34.95;;;0.00;99.90;;;-1.40;100.00;97939.53;5031403;28;20891;-73
2023/03/01 03:36:56;;;;;;;53.03;35.30;;;0.00;99.90;;;-1.39;100.00;97938.56;5031235;28;20415;-73
2023/03/01 03:39:22;;;;;;;52.42;34.08;;;0.00;99.90;;;-1.36;100.00;97927.84;5031316;28;20482;-73
2023/03/01 03:41:48;;;;;;;53.63;35.55;;;0.00;99.90;;;-1.35;100.00;97936.44;5030939;28;20829;-73
2023/03/01 03:44:14;;;;;;;54.45;35.22;;;0.00;99.90;;;-1.34;100.00;97940.66;5031103;28;20403;-73
2023/03/01 03:46:40;;;;;;;53.20;34.05;;;0.00;99.90;;;-1.31;100.00;97933.38;5031050;28;20407;-73
2023/03/01 03:49:05;;;;;;;56.83;36.13;;;0.10;99.90;;;-1.29;100.00;97939.22;5031029;28;20399;-73
2023/03/01 03:51:31;;;;;;;53.92;34.40;;;0.10;99.90;;;-1.26;100.00;97943.25;5030742;28;20521;-73
2023/03/01 03:53:58;;;;;;;56.50;36.75;;;0.10;99.90;;;-1.26;100.00;97936.28;5030865;28;20399;-73
2023/03/01 03:56:25;;;;;;;63.72;39.60;;;0.10;99.90;;;-1.22;100.00;97935.00;5030965;28;20403;-73
2023/03/01 03:58:51;;;;;;;57.03;36.03;;;0.10;99.90;;;-1.21;100.00;97928.00;5030805;28;20477;-73
2023/03/01 04:01:18;;;;;;;57.88;36.33;;;0.20;99.90;;;-1.18;100.00;97935.47;5030645;28;20403;-73
2023/03/01 04:03:46;;;;;;;56.50;36.22;;;0.20;99.90;;;-1.18;100.00;97923.28;5030625;28;20411;-73
2023/03/01 04:06:13;;;;;;;58.70;36.67;;;0.20;99.90;;;-1.17;100.00;97924.91;5030677;28;20487;-74
2023/03/01 04:08:40;;;;;;;59.95;37.03;;;0.20;99.90;;;-1.15;100.00;97921.34;5030640;28;20391;-73
2023/03/01 04:11:26;;;;;;;55.97;36.70;;;0.20;99.90;;;-1.15;100.00;97916.16;5030687;28;20403;-73
2023/03/01 04:13:54;;;;;;;56.00;35.50;;;0.20;99.90;;;-1.14;100.00;97912.59;5029976;28;20402;-74
2023/03/01 04:16:21;;;;;;;57.08;36.30;;;0.20;99.90;;;-1.14;100.00;97908.19;5030651;28;20773;-73
2023/03/01 04:18:47;;;;;;;54.75;36.53;;;0.20;99.90;;;-1.11;100.00;97915.66;5030397;28;20498;-73
2023/03/01 04:21:14;;;;;;;59.07;37.93;;;0.30;99.90;;;-1.09;100.00;97918.91;5030345;28;20399;-73
2023/03/01 04:23:40;;;;;;;59.47;38.40;;;0.30;99.90;;;-1.08;100.00;97911.91;5030129;28;20407;-73
2023/03/01 04:26:08;;;;;;;56.03;36.90;;;0.30;99.90;;;-1.07;100.00;97908.34;5030450;28;20912;-73
2023/03/01 04:28:36;;;;;;;59.70;37.05;;;0.30;99.90;;;-1.06;100.00;97902.19;5030244;28;20414;-73
2023/03/01 04:31:12;;;;;;;56.67;35.97;;;0.30;99.90;;;-1.06;100.00;97900.41;5030373;28;20399;-73
2023/03/01 04:33:40;;;;;;;60.03;36.72;;;0.30;99.90;;;-1.04;100.00;97908.00;5029865;28;20426;-73
2023/03/01 04:36:08;;;;;;;58.10;36.63;;;0.30;99.90;;;-1.05;100.00;97904.59;5030264;28;20410;-73
2023/03/01 04:38:36;;;;;;;59.92;37.65;;;0.30;99.90;;;-1.03;100.00;97913.03;5030140;28;20438;-73
2023/03/01 04:41:03;;;;;;;59.38;37.58;;;0.30;99.90;;;-1.02;100.00;97913.84;5030159;28;20407;-73
2023/03/01 04:43:30;;;;;;;60.92;36.95;;;0.30;99.90;;;-1.02;100.00;97911.25;5030055;28;20465;-73
2023/03/01 04:46:02;;;;;;;62.10;38.72;;;0.30;99.90;;;-1.01;100.00;97912.88;5030214;28;20893;-73
2023/03/01 04:48:28;;;;;;;62.58;38.08;;;0.40;99.90;;;-1.00;100.00;97904.94;5030094;28;20430;-73
2023/03/01 04:50:54;;;;;;;64.07;39.63;;;0.30;99.90;;;-1.00;100.00;97907.53;5030123;28;20403;-73
2023/03/01 04:53:20;;;;;;;60.00;38.17;;;0.30;99.90;;;-1.01;100.00;97905.91;5029907;28;20511;-73
2023/03/01 04:55:46;;;;;;;56.37;37.60;;;0.30;99.90;;;-1.01;100.00;97902.50;5045084;28;20426;-72
2023/03/01 04:58:12;;;;;;;62.22;38.65;;;0.40;99.90;;;-1.00;100.00;97904.94;5030026;28;20411;-72
2023/03/01 05:00:39;;;;;;;63.17;40.67;;;0.40;99.90;;;-1.01;100.00;97902.50;5029686;28;20494;-72
2023/03/01 05:03:05;;;;;;;59.15;37.30;;;0.40;99.90;;;-1.02;100.00;97903.47;5029657;28;20414;-72
2023/03/01 05:05:33;;;;;;;60.07;39.10;;;0.30;99.90;;;-1.02;100.00;97908.66;5045336;28;20426;-72
2023/03/01 05:08:02;;;;;;;59.97;37.33;;;0.30;99.90;;;-1.01;100.00;97911.09;5030059;28;20438;-72
2023/03/01 05:10:31;;;;;;;56.20;36.67;;;0.30;99.90;;;-1.04;100.00;97906.22;5029848;28;20407;-73
2023/03/01 05:12:57;;;;;;;55.80;36.45;;;0.30;99.90;;;-1.02;100.00;97904.28;5029614;28;20399;-72
2023/03/01 05:15:27;;;;;;;55.83;35.45;;;0.30;99.90;;;-1.01;100.00;97908.50;5029958;28;20490;-72
2023/03/01 05:17:58;;;;;;;57.53;35.55;;;0.30;99.90;;;-1.00;100.00;97909.31;5029877;28;20411;-73
2023/03/01 05:20:25;;;;;;;57.33;36.47;;;0.30;99.90;;;-1.00;100.00;97899.72;5029950;28;20482;-73
2023/03/01 05:22:51;;;;;;;59.07;37.10;;;0.40;99.90;;;-1.01;100.00;97900.69;5029745;28;20750;-72
2023/03/01 05:25:18;;;;;;;54.37;35.47;;;0.30;99.90;;;-1.00;100.00;97904.13;5030111;28;20408;-71
2023/03/01 05:27:44;;;;;;;54.75;35.13;;;0.40;99.90;;;-0.99;100.00;97890.16;5033757;28;20449;-71
2023/03/01 05:30:14;;;;;;;58.63;36.85;;;0.40;99.90;;;-0.97;100.00;97901.97;5033471;28;20417;-71
2023/03/01 05:32:49;;;;;;;56.15;36.20;;;0.40;99.90;;;-0.97;100.00;97899.38;5034333;28;20441;-72
2023/03/01 05:35:17;;;;;;;58.97;36.22;;;0.40;99.90;;;-0.95;100.00;97904.41;5033471;28;20403;-72
2023/03/01 05:37:51;;;;;;;60.90;36.90;;;0.40;99.90;;;-0.95;100.00;97907.84;5033522;28;20547;-71
2023/03/01 05:40:19;;;;;;;57.50;35.00;;;0.40;99.90;;;-0.95;100.00;97902.63;5033472;28;20427;-72
2023/03/01 05:42:47;;;;;;;62.70;38.08;;;0.40;99.90;;;-0.94;100.00;97903.44;5033074;28;20401;-72
2023/03/01 05:45:14;;;;;;;59.30;36.50;;;0.40;99.90;;;-0.94;100.00;97904.25;5033388;28;20399;-72
2023/03/01 05:47:44;;;;;;;56.05;35.65;;;0.40;99.90;;;-0.94;100.00;97904.25;5033255;28;20419;-71
2023/03/01 05:50:13;;;;;;;58.88;37.40;;;0.40;99.90;;;-0.94;100.00;97906.03;5032489;28;20772;-72
2023/03/01 05:52:40;;;;;;;56.47;36.03;;;0.40;99.90;;;-0.93;100.00;97905.06;5032350;28;20884;-71
2023/03/01 05:55:08;;;;;;;59.22;37.95;;;0.40;99.90;;;-0.94;100.00;97900.84;5032926;28;21041;-71
2023/03/01 05:57:33;;;;;;;57.15;36.97;;;0.40;99.90;;;-0.93;100.00;97894.69;5032686;28;20410;-71
2023/03/01 05:59:59;;;;;;;62.40;37.45;;;0.40;99.90;;;-0.93;100.00;97892.09;5032615;28;20490;-71
2023/03/01 06:02:25;;;;;;;53.27;34.77;;;0.40;99.90;;;-0.92;100.00;97896.31;5032433;28;20928;-71
2023/03/01 06:04:51;;;;;;;59.70;37.72;;;0.40;99.90;;;-0.92;100.00;97885.91;5032542;28;20800;-71
2023/03/01 06:07:17;;;;;;;62.97;39.47;;;0.40;99.90;;;-0.93;100.00;97890.28;5032362;28;20493;-71
2023/03/01 06:09:44;;;;;;;65.53;39.55;;;0.40;99.90;;;-0.90;100.00;97891.72;5031756;28;20404;-70
2023/03/01 06:12:10;;;;;;;66.07;40.13;;;0.40;99.90;;;-0.90;100.00;97886.53;5032703;28;20399;-72
2023/03/01 06:14:36;;;;;;;59.10;38.58;;;0.50;99.90;;;-0.91;100.00;97893.53;5032850;28;20490;-72
2023/03/01 06:17:02;;;;;;;60.47;38.10;;;0.40;99.90;;;-0.90;100.00;97889.13;5032635;28;20497;-71
2023/03/01 06:19:28;;;;;;;59.42;37.90;;;0.50;99.90;;;-0.90;100.00;97887.34;5032728;28;20403;-72
2023/03/01 06:21:54;;;;;;;58.33;36.60;;;0.50;99.90;;;-0.89;100.00;97882.97;5032503;28;20419;-72
2023/03/01 06:24:20;;;;;;;58.78;36.65;;;0.40;99.90;;;-0.89;100.00;97888.16;5032588;28;20399;-72
2023/03/01 06:26:47;;;;;;;67.40;39.65;;;0.50;99.90;;;-0.87;100.00;97889.63;5032541;28;20410;-72
2023/03/01 06:29:14;;;;;;;64.55;39.42;;;0.50;99.90;;;-0.83;100.00;97880.50;5045165;23;21276;-74
2023/03/01 06:31:40;;;;;;;61.90;38.72;;;0.50;99.90;;;-0.80;100.00;97881.97;5030552;28;20513;-74
2023/03/01 06:34:06;;;;;;;61.73;38.67;;;0.50;99.90;;;-0.83;100.00;97887.53;5031877;28;20429;-75
2023/03/01 06:36:32;;;;;;;67.75;40.90;;;0.50;99.90;;;-0.84;100.00;97883.28;5031486;28;20403;-75
2023/03/01 06:38:58;;;;;;;58.53;37.30;;;0.50;99.90;;;-0.84;100.00;97886.72;5032129;28;20812;-75
2023/03/01 06:41:24;;;;;;;64.50;39.45;;;0.50;99.90;;;-0.85;100.00;97884.25;5032035;28;20422;-75
2023/03/01 06:43:51;;;;;;;58.20;37.55;;;0.50;99.90;;;-0.86;100.00;97899.03;5032147;28;20412;-75
2023/03/01 06:46:17;;;;;;;63.53;37.95;;;0.50;99.90;;;-0.84;100.00;97891.09;5032052;28;20404;-75
2023/03/01 06:48:43;;;;;;;61.97;37.55;;;0.50;99.90;;;-0.83;100.00;97887.53;5032047;28;20399;-75
2023/03/01 06:51:08;;;;;;;61.53;39.20;;;0.50;99.90;;;-0.85;100.00;97892.88;5032101;28;20430;-75
2023/03/01 06:53:35;;;;;;;59.42;37.92;;;0.50;99.90;;;-0.82;100.00;97899.50;5032072;28;20399;-75
2023/03/01 06:56:01;;;;;;;59.47;37.35;;;0.50;99.90;;;-0.80;100.00;97897.56;5031219;28;20414;-75
2023/03/01 06:58:26;;;;;;;60.33;39.40;;;0.50;99.90;;;-0.82;100.00;97895.13;5031877;28;20423;-75
2023/03/01 07:00:54;;;;;;;55.40;37.07;;;0.50;99.90;;;-0.80;100.00;97893.19;5031143;28;20431;-74
2023/03/01 07:03:20;;;;;;;63.05;38.97;;;0.60;99.90;;;-0.78;100.00;97890.41;5031129;28;20435;-74
2023/03/01 07:05:48;;;;;;;72.10;40.33;;;0.50;99.90;;;-0.76;100.00;97882.47;5031324;28;20429;-73
2023/03/01 07:08:14;;;;;;;56.45;37.15;;;0.60;99.90;;;-0.75;100.00;97890.06;5031297;28;20468;-73
2023/03/01 07:10:40;;;;;;;58.17;37.70;;;0.60;99.90;;;-0.76;100.00;97882.47;5031047;28;20414;-73
2023/03/01 07:13:06;;;;;;;58.45;37.00;;;0.60;99.90;;;-0.75;100.00;97876.28;5031463;28;20831;-74
2023/03/01 07:15:32;;;;;;;59.15;36.95;;;0.60;99.90;;;-0.76;100.00;97878.06;5031596;28;20900;-74
2023/03/01 07:18:00;;;;;;;63.25;38.50;;;0.60;99.90;;;-0.77;100.00;97878.22;5030217;28;20935;-74
2023/03/01 07:20:25;;;;;;;62.78;38.42;;;0.60;99.90;;;-0.79;100.00;97878.41;5031583;28;20411;-74
2023/03/01 07:22:52;;;;;;;59.90;36.97;;;0.50;99.90;;;-0.79;100.00;97876.59;5030092;28;20839;-74
2023/03/01 07:25:18;;;;;;;62.72;39.60;;;0.60;99.90;;;-0.77;100.00;97876.44;5030625;28;20399;-74
2023/03/01 07:27:43;;;;;;;65.88;40.58;;;0.60;99.90;;;-0.75;100.00;97868.50;5030244;28;20434;-74
2023/03/01 07:30:11;;;;;;;66.05;40.80;;;0.60;99.90;;;-0.72;100.00;97868.13;5030658;28;20446;-74
2023/03/01 07:32:37;;;;;;;65.70;40.63;;;0.60;99.90;;;-0.68;100.00;97862.44;5030290;28;20399;-74
2023/03/01 07:35:05;;;;;;;62.50;38.95;;;0.70;99.90;;;-0.63;100.00;97856.75;5030392;28;20926;-74
2023/03/01 07:37:31;;;;;;;76.00;42.40;;;0.70;99.90;;;-0.59;100.00;97855.41;5030424;28;20584;-74
2023/03/01 07:39:57;;;;;;;61.97;39.22;;;0.70;99.90;;;-0.56;100.00;97857.69;5029820;28;20517;-74
2023/03/01 07:42:23;;;;;;;62.10;39.30;;;0.70;99.90;;;-0.52;100.00;97864.16;5030048;28;20395;-74
2023/03/01 07:44:49;;;;;;;61.08;37.47;;;0.80;99.90;;;-0.47;100.00;97859.28;5030703;28;20410;-74
2023/03/01 07:47:15;;;;;;;61.58;38.58;;;0.80;99.90;;;-0.41;100.00;97855.97;5031044;28;20399;-74
2023/03/01 07:49:41;;;;;;;61.47;39.33;;;0.90;99.90;;;-0.38;100.00;97859.03;5029792;28;20923;-74
2023/03/01 07:52:10;;;;;;;65.10;39.42;;;0.90;99.90;;;-0.32;100.00;97857.56;5030730;28;20495;-74
2023/03/01 07:54:36;;;;;;;59.80;38.17;;;1.00;99.90;;;-0.29;100.00;97846.81;5028952;28;20412;-74
2023/03/01 07:57:02;;;;;;;58.27;36.93;;;1.00;99.90;;;-0.22;100.00;97842.53;5031114;28;20442;-75
2023/03/01 07:59:29;;;;;;;61.28;38.42;;;1.10;99.90;;;-0.18;100.00;97846.44;5030294;28;20935;-74
2023/03/01 08:01:56;;;;;;;54.07;36.17;;;1.10;99.90;;;-0.15;100.00;97843.47;5018194;28;20415;-75
2023/03/01 08:04:24;;;;;;;58.40;37.40;;;1.10;99.90;;;-0.11;100.00;97852.56;5024403;28;20418;-73
2023/03/01 08:06:50;;;;;;;56.33;37.15;;;1.20;99.90;;;-0.05;100.00;97848.47;5020271;28;20429;-77
2023/03/01 08:09:17;;;;;;;63.15;39.25;;;1.20;99.90;;;0.02;100.00;97833.78;5027020;28;20411;-77
2023/03/01 08:11:43;;;;;;;58.95;37.58;;;1.30;99.90;;;0.07;100.00;97835.88;5026896;28;20427;-77
2023/03/01 08:14:10;;;;;;;58.42;37.35;;;1.30;99.90;;;0.09;100.00;97837.28;5027975;28;20450;-73
2023/03/01 08:16:36;;;;;;;53.38;35.05;;;1.40;99.90;;;0.16;100.00;97847.81;5027237;28;20418;-73
2023/03/01 08:19:04;;;;;;;56.00;35.50;;;1.40;99.90;;;0.23;100.00;97840.94;5029036;28;20422;-74
2023/03/01 08:21:30;;;;;;;60.55;38.35;;;1.50;99.90;;;0.28;100.00;97842.06;5029232;28;20468;-73
2023/03/01 08:23:56;;;;;;;60.90;37.77;;;1.50;99.90;;;0.32;100.00;97837.28;5028094;28;20907;-73
2023/03/01 08:26:23;;;;;;;60.97;38.42;;;1.50;99.90;;;0.36;100.00;97844.59;5028462;28;20502;-73
2023/03/01 08:28:50;;;;;;;58.63;38.27;;;1.60;99.90;;;0.42;100.00;97839.66;5027148;28;20423;-74
2023/03/01 08:31:19;;;;;;;61.25;39.08;;;1.60;99.90;;;0.47;100.00;97840.75;5026190;28;20422;-77
2023/03/01 08:33:50;;;;;;;57.97;35.95;;;1.70;99.90;;;0.55;100.00;97839.88;5028771;28;20435;-72
2023/03/01 08:36:17;;;;;;;64.37;38.63;;;1.80;99.90;;;0.58;100.00;97842.94;5029343;28;20403;-76
2023/03/01 08:38:43;;;;;;;58.28;36.65;;;1.80;99.90;;;0.63;100.00;97835.41;5028087;28;20476;-73
2023/03/01 08:41:11;;;;;;;57.97;36.55;;;1.80;99.90;;;0.69;100.00;97828.66;5027644;28;21148;-73
2023/03/01 08:43:38;;;;;;;59.20;36.78;;;1.90;99.90;;;0.72;100.00;97829.13;5026242;28;20505;-71
2023/03/01 08:46:04;;;;;;;61.30;38.20;;;2.00;99.90;;;0.82;100.00;97828.88;5028255;28;20831;-72
2023/03/01 08:48:30;;;;;;;56.83;36.57;;;2.00;99.90;;;0.88;100.00;97828.16;5027707;28;20419;-73
2023/03/01 08:50:56;;;;;;;55.85;37.10;;;2.10;99.90;;;0.96;100.00;97833.28;5025410;28;20806;-74
2023/03/01 08:53:22;;;;;;;55.35;36.03;;;2.20;99.90;;;1.01;100.00;97828.34;5024155;28;20414;-74
2023/03/01 08:55:48;;;;;;;55.95;36.63;;;2.20;99.90;;;1.08;100.00;97818.81;5027658;28;20916;-73
2023/03/01 08:58:14;;;;;;;55.67;36.07;;;2.30;99.90;;;1.13;100.00;97820.84;5027538;28;20549;-73
2023/03/01 09:00:41;;;;;;;60.45;37.45;;;2.30;99.90;;;1.16;100.00;97816.09;5031476;28;20403;-73
2023/03/01 09:03:07;;;;;;;53.10;35.27;;;2.30;99.90;;;1.25;100.00;97810.81;5029534;28;20418;-75
2023/03/01 09:05:34;;;;;;;54.67;35.88;;;2.40;99.90;;;1.33;100.00;97811.50;5030923;28;20419;-74
2023/03/01 09:08:00;;;;;;;53.30;34.20;;;2.50;99.90;;;1.44;100.00;97810.22;5031081;28;20408;-75
2023/03/01 09:10:27;;;;;;;59.53;36.83;;;2.60;99.90;;;1.50;100.00;97812.91;5026439;28;20465;-75
2023/03/01 09:12:53;;;;;;;49.10;33.45;;;2.70;99.90;;;1.58;100.00;97811.22;5029382;28;20517;-74
2023/03/01 09:15:19;;;;;;;59.80;36.15;;;2.70;99.90;;;1.62;100.00;97804.63;5031582;28;20862;-75
2023/03/01 09:17:46;;;;;;;52.22;34.63;;;2.80;99.90;;;1.70;100.00;97804.50;5048526;28;20419;-76
2023/03/01 09:20:12;;;;;;;52.72;35.28;;;2.90;99.90;;;1.79;100.00;97800.78;5030478;28;20850;-75
2023/03/01 09:22:38;;;;;;;49.80;33.88;;;2.90;99.90;;;1.85;100.00;97792.22;5030916;28;20423;-74
2023/03/01 09:25:05;;;;;;;52.77;34.63;;;3.00;99.90;;;1.91;100.00;97792.28;5031010;28;20573;-77
2023/03/01 09:27:31;;;;;;;50.33;34.53;;;3.00;99.90;;;2.02;100.00;97785.75;5032388;28;20529;-75
2023/03/01 09:29:57;;;;;;;55.87;35.60;;;3.10;99.90;;;2.07;100.00;97785.19;5030694;28;20506;-75
2023/03/01 09:32:23;;;;;;;50.80;32.85;;;3.20;99.90;;;2.08;100.00;97784.19;5030842;28;20445;-74
2023/03/01 09:35:05;;;;;;;52.30;35.10;;;3.20;99.90;;;2.13;100.00;97781.81;5031407;28;20425;-74
2023/03/01 09:37:33;;;;;;;48.05;31.50;;;3.30;99.90;;;2.27;100.00;97786.16;5030504;28;21070;-73
2023/03/01 09:39:59;;;;;;;47.47;32.65;;;3.40;99.90;;;2.33;100.00;97785.44;5031982;28;20414;-74
2023/03/01 09:42:27;;;;;;;50.63;32.80;;;3.50;99.90;;;2.40;100.00;97783.69;5032851;28;20425;-76
2023/03/01 09:44:59;;;;;;;49.70;32.63;;;3.50;99.90;;;2.47;100.00;97787.16;5033330;28;20427;-76
2023/03/01 09:47:28;;;;;;;53.40;34.72;;;3.60;99.90;;;2.51;100.00;97790.97;5032160;28;20423;-74
2023/03/01 09:50:06;;;;;;;49.05;33.15;;;3.60;99.90;;;2.57;100.00;97795.44;5033082;28;20413;-74
2023/03/01 09:52:40;;;;;;;48.30;32.78;;;3.70;99.90;;;2.71;100.00;97783.25;5029990;28;20506;-76
2023/03/01 09:55:12;;;;;;;48.63;32.38;;;3.80;99.90;;;2.91;100.00;97772.94;5030117;28;25188;-74
2023/03/01 09:57:47;;;;;;;49.20;31.98;;;3.90;99.90;;;3.06;100.00;97781.47;5030301;28;20488;-74
2023/03/01 10:00:32;;;;;;;49.53;33.00;;;4.10;99.90;;;3.29;100.00;97771.53;5032210;28;20446;-74
2023/03/01 10:03:11;;;;;;;52.83;32.25;;;4.40;99.90;;;3.63;100.00;97775.84;5030030;28;20841;-74
2023/03/01 10:05:48;;;;;;;43.80;30.15;;;4.70;99.90;;;4.03;100.00;97768.91;5025713;28;20417;-74
2023/03/01 10:08:41;;;;;;;44.70;29.08;;;5.10;99.90;;;4.58;100.00;97766.91;5032749;28;20399;-75